createdAt,value
2023-05-01T00:00:52.505Z,21.42
2023-05-01T00:03:19.736Z,21.43
2023-05-01T00:05:47.526Z,21.43
2023-05-01T00:08:14.698Z,21.44
2023-05-01T00:10:41.812Z,21.38
2023-05-01T00:13:10.046Z,21.40
2023-05-01T00:15:37.366Z,21.40
2023-05-01T00:18:04.516Z,21.40
2023-05-01T00:20:31.657Z,21.39
2023-05-01T00:22:58.843Z,21.40
2023-05-01T00:25:25.963Z,21.40
2023-05-01T00:27:53.080Z,21.40
2023-05-01T00:30:20.335Z,21.43
2023-05-01T00:32:47.535Z,21.42
2023-05-01T00:35:14.970Z,21.41
2023-05-01T00:37:42.192Z,21.39
2023-05-01T00:40:09.668Z,21.39
2023-05-01T00:42:39.186Z,21.39
2023-05-01T00:45:07.330Z,21.40
2023-05-01T00:47:37.816Z,21.37
2023-05-01T00:50:05.826Z,21.38
2023-05-01T00:52:32.953Z,21.40
2023-05-01T00:55:00.079Z,21.35
2023-05-01T00:57:27.252Z,21.33
2023-05-01T00:59:54.654Z,21.33
2023-05-01T01:02:22.448Z,21.32
2023-05-01T01:04:49.685Z,21.30
2023-05-01T01:07:27.182Z,21.33
2023-05-01T01:10:13.387Z,21.30
2023-05-01T01:12:43.523Z,21.28
2023-05-01T01:15:10.670Z,21.28
2023-05-01T01:17:38.002Z,21.29
2023-05-01T01:20:18.695Z,21.28
2023-05-01T01:22:47.650Z,21.28
2023-05-01T01:25:33.652Z,21.27
2023-05-01T01:28:06.510Z,21.26
2023-05-01T01:30:42.670Z,21.26
2023-05-01T01:33:17.238Z,21.25
2023-05-01T01:35:47.185Z,21.27
2023-05-01T01:38:17.864Z,21.27
2023-05-01T01:40:47.426Z,21.27
2023-05-01T01:43:14.587Z,21.24
2023-05-01T01:45:42.265Z,21.24
2023-05-01T01:48:10.067Z,21.24
2023-05-01T01:50:37.311Z,21.20
2023-05-01T01:53:04.619Z,21.20
2023-05-01T01:55:31.804Z,21.22
2023-05-01T01:57:59.044Z,21.20
2023-05-01T02:00:26.139Z,21.20
2023-05-01T02:02:53.375Z,21.20
2023-05-01T02:05:20.560Z,21.17
2023-05-01T02:07:48.691Z,21.21
2023-05-01T02:10:16.321Z,21.18
2023-05-01T02:12:44.756Z,21.17
2023-05-01T02:15:11.873Z,21.17
2023-05-01T02:17:39.009Z,21.18
2023-05-01T02:20:06.348Z,21.20
2023-05-01T02:22:33.688Z,21.23
2023-05-01T02:25:01.052Z,21.17
2023-05-01T02:27:32.334Z,21.17
2023-05-01T02:29:59.501Z,21.14
2023-05-01T02:32:26.696Z,21.13
2023-05-01T02:34:54.064Z,21.11
2023-05-01T02:37:21.199Z,21.10
2023-05-01T02:39:48.746Z,21.14
2023-05-01T02:42:16.093Z,21.13
2023-05-01T02:44:45.295Z,21.10
2023-05-01T02:47:12.740Z,21.11
2023-05-01T02:49:39.867Z,21.10
2023-05-01T02:52:07.026Z,21.09
2023-05-01T02:54:34.208Z,21.08
2023-05-01T02:57:03.473Z,21.06
2023-05-01T02:59:30.590Z,21.08
2023-05-01T03:01:58.188Z,21.08
2023-05-01T03:04:25.749Z,21.06
2023-05-01T03:06:53.048Z,21.05
2023-05-01T03:09:20.536Z,21.05
2023-05-01T03:11:47.749Z,21.05
2023-05-01T03:14:14.916Z,21.06
2023-05-01T03:16:42.167Z,21.04
2023-05-01T03:19:09.316Z,21.03
2023-05-01T03:21:37.079Z,21.03
2023-05-01T03:24:04.211Z,21.04
2023-05-01T03:26:32.979Z,21.04
2023-05-01T03:29:00.217Z,21.03
2023-05-01T03:31:27.342Z,21.03
2023-05-01T03:33:54.548Z,21.01
2023-05-01T03:36:22.455Z,21.01
2023-05-01T03:38:49.600Z,21.02
2023-05-01T03:41:17.046Z,21.02
2023-05-01T03:43:44.170Z,21.00
2023-05-01T03:46:11.466Z,21.01
2023-05-01T03:48:38.644Z,20.99
2023-05-01T03:51:08.873Z,20.99
2023-05-01T03:53:37.023Z,21.00
2023-05-01T03:56:04.704Z,20.99
2023-05-01T03:58:32.185Z,20.99
2023-05-01T04:01:00.859Z,20.96
2023-05-01T04:03:28.720Z,20.98
2023-05-01T04:05:56.254Z,20.98
2023-05-01T04:08:23.603Z,21.00
2023-05-01T04:10:51.051Z,20.98
2023-05-01T04:13:18.168Z,20.99
2023-05-01T04:15:46.463Z,21.00
2023-05-01T04:18:14.213Z,21.00
2023-05-01T04:20:41.481Z,20.97
2023-05-01T04:23:09.549Z,20.97
2023-05-01T04:25:36.950Z,20.96
2023-05-01T04:28:04.569Z,20.97
2023-05-01T04:30:31.760Z,20.99
2023-05-01T04:32:59.053Z,20.98
2023-05-01T04:35:26.829Z,20.97
2023-05-01T04:37:53.985Z,20.98
2023-05-01T04:40:21.106Z,20.96
2023-05-01T04:42:48.320Z,20.98
2023-05-01T04:45:16.160Z,20.99
2023-05-01T04:47:43.898Z,20.97
2023-05-01T04:50:11.624Z,20.99
2023-05-01T04:52:38.780Z,20.98
2023-05-01T04:55:06.116Z,20.98
2023-05-01T04:57:33.230Z,21.02
2023-05-01T05:00:00.362Z,21.02
2023-05-01T05:02:27.557Z,21.02
2023-05-01T05:04:54.802Z,21.00
2023-05-01T05:07:22.304Z,21.04
2023-05-01T05:09:49.409Z,21.06
2023-05-01T05:12:16.527Z,21.06
2023-05-01T05:14:43.861Z,21.08
2023-05-01T05:17:11.108Z,21.04
2023-05-01T05:19:38.307Z,21.05
2023-05-01T05:22:05.597Z,21.03
2023-05-01T05:24:32.805Z,21.03
2023-05-01T05:26:59.942Z,21.06
2023-05-01T05:29:27.160Z,21.01
2023-05-01T05:31:54.420Z,21.01
2023-05-01T05:34:21.707Z,21.07
2023-05-01T05:36:48.873Z,21.09
2023-05-01T05:39:15.993Z,21.14
2023-05-01T05:41:43.182Z,21.15
2023-05-01T05:44:10.301Z,21.20
2023-05-01T05:46:37.603Z,21.23
2023-05-01T05:49:04.774Z,21.25
2023-05-01T05:51:32.061Z,21.27
2023-05-01T05:53:59.229Z,21.30
2023-05-01T05:56:26.412Z,21.30
2023-05-01T05:58:53.615Z,21.25
2023-05-01T06:01:20.769Z,21.26
2023-05-01T06:03:48.001Z,21.29
2023-05-01T06:06:15.327Z,21.31
2023-05-01T06:08:42.593Z,21.30
2023-05-01T06:11:09.704Z,21.27
2023-05-01T06:13:36.885Z,21.22
2023-05-01T06:16:04.434Z,21.22
2023-05-01T06:18:31.640Z,21.28
2023-05-01T06:20:59.913Z,21.39
2023-05-01T06:23:27.036Z,21.53
2023-05-01T06:25:54.164Z,21.59
2023-05-01T06:28:21.480Z,21.72
2023-05-01T06:30:48.643Z,21.80
2023-05-01T06:33:15.951Z,21.87
2023-05-01T06:35:43.171Z,21.90
2023-05-01T06:38:10.430Z,21.94
2023-05-01T06:40:37.626Z,21.97
2023-05-01T06:43:04.739Z,22.00
2023-05-01T06:45:32.151Z,22.04
2023-05-01T06:47:59.314Z,22.08
2023-05-01T06:50:26.547Z,22.12
2023-05-01T06:52:53.731Z,22.13
2023-05-01T06:55:20.890Z,22.16
2023-05-01T06:57:48.011Z,22.17
2023-05-01T07:00:15.938Z,22.20
2023-05-01T07:02:44.953Z,22.21
2023-05-01T07:05:12.373Z,22.24
2023-05-01T07:07:44.577Z,22.25
2023-05-01T07:10:17.584Z,22.28
2023-05-01T07:12:44.825Z,22.29
2023-05-01T07:15:12.315Z,22.28
2023-05-01T07:17:39.542Z,22.27
2023-05-01T07:20:06.996Z,22.24
2023-05-01T07:22:34.176Z,22.24
2023-05-01T07:25:03.022Z,22.27
2023-05-01T07:27:30.218Z,22.29
2023-05-01T07:29:58.449Z,22.30
2023-05-01T07:32:26.065Z,22.31
2023-05-01T07:34:53.245Z,22.31
2023-05-01T07:37:20.386Z,22.30
2023-05-01T07:39:47.594Z,22.28
2023-05-01T07:42:14.860Z,22.27
2023-05-01T07:44:41.984Z,22.29
2023-05-01T07:47:09.154Z,22.30
2023-05-01T07:49:37.569Z,22.31
2023-05-01T07:52:05.614Z,22.32
2023-05-01T07:54:33.030Z,22.30
2023-05-01T07:57:01.748Z,22.23
2023-05-01T07:59:28.891Z,22.24
2023-05-01T08:01:56.292Z,22.28
2023-05-01T08:04:23.600Z,22.28
2023-05-01T08:06:51.477Z,22.27
2023-05-01T08:09:18.818Z,22.24
2023-05-01T08:11:45.959Z,22.24
2023-05-01T08:14:13.218Z,22.23
2023-05-01T08:16:40.470Z,22.23
2023-05-01T08:19:07.716Z,22.20
2023-05-01T08:21:37.436Z,22.20
2023-05-01T08:24:04.895Z,22.20
2023-05-01T08:26:32.262Z,22.19
2023-05-01T08:28:59.409Z,22.18
2023-05-01T08:31:26.953Z,22.18
2023-05-01T08:33:54.112Z,22.18
2023-05-01T08:36:21.532Z,22.18
2023-05-01T08:38:48.882Z,22.18
2023-05-01T08:41:18.247Z,22.18
2023-05-01T08:43:45.413Z,22.16
2023-05-01T08:46:13.194Z,22.16
2023-05-01T08:48:41.304Z,22.17
2023-05-01T08:51:08.728Z,22.17
2023-05-01T08:53:35.918Z,22.16
2023-05-01T08:56:04.172Z,22.07
2023-05-01T08:58:31.896Z,22.10
2023-05-01T09:01:01.128Z,22.14
2023-05-01T09:03:29.535Z,22.16
2023-05-01T09:05:56.846Z,22.16
2023-05-01T09:08:24.016Z,22.17
2023-05-01T09:10:51.496Z,22.16
2023-05-01T09:13:18.641Z,22.16
2023-05-01T09:15:45.937Z,22.17
2023-05-01T09:18:13.368Z,22.17
2023-05-01T09:20:40.663Z,22.17
2023-05-01T09:23:07.879Z,22.18
2023-05-01T09:25:35.207Z,22.15
2023-05-01T09:28:04.323Z,22.12
2023-05-01T09:30:32.170Z,22.12
2023-05-01T09:33:04.144Z,22.09
2023-05-01T09:35:32.906Z,22.00
2023-05-01T09:38:00.191Z,21.92
2023-05-01T09:40:27.581Z,21.85
2023-05-01T09:42:57.423Z,21.84
2023-05-01T09:45:26.491Z,21.81
2023-05-01T09:47:53.994Z,21.75
2023-05-01T09:50:31.070Z,21.73
2023-05-01T09:52:58.238Z,21.74
2023-05-01T09:55:25.974Z,21.74
2023-05-01T09:57:53.314Z,21.82
2023-05-01T10:00:21.987Z,21.87
2023-05-01T10:02:49.872Z,21.89
2023-05-01T10:05:17.565Z,21.92
2023-05-01T10:07:59.989Z,21.95
2023-05-01T10:10:27.615Z,21.95
2023-05-01T10:12:55.033Z,21.97
2023-05-01T10:15:25.468Z,22.00
2023-05-01T10:17:54.761Z,22.00
2023-05-01T10:20:22.216Z,21.98
2023-05-01T10:22:49.943Z,21.91
2023-05-01T10:25:17.163Z,21.89
2023-05-01T10:27:44.530Z,21.83
2023-05-01T10:30:11.780Z,21.82
2023-05-01T10:32:39.129Z,21.85
2023-05-01T10:35:14.496Z,21.92
2023-05-01T10:37:48.442Z,21.94
2023-05-01T10:40:34.220Z,21.94
2023-05-01T10:43:20.959Z,21.78
2023-05-01T10:45:49.144Z,21.75
2023-05-01T10:48:38.299Z,21.72
2023-05-01T10:51:15.512Z,21.71
2023-05-01T10:53:43.929Z,21.66
2023-05-01T10:56:32.513Z,21.62
2023-05-01T10:59:04.609Z,21.56
2023-05-01T11:01:41.210Z,21.52
2023-05-01T11:04:30.066Z,21.52
2023-05-01T11:07:09.329Z,21.58
2023-05-01T11:09:42.546Z,21.65
2023-05-01T11:12:11.929Z,21.62
2023-05-01T11:14:54.809Z,21.62
2023-05-01T11:17:43.474Z,21.63
2023-05-01T11:20:11.410Z,21.66
2023-05-01T11:22:40.880Z,21.72
2023-05-01T11:25:22.026Z,21.71
2023-05-01T11:27:52.330Z,21.71
2023-05-01T11:30:20.274Z,21.65
2023-05-01T11:32:49.329Z,21.67
2023-05-01T11:35:16.676Z,21.66
2023-05-01T11:37:46.852Z,21.72
2023-05-01T11:40:21.653Z,21.74
2023-05-01T11:42:49.434Z,21.75
2023-05-01T11:45:16.801Z,21.75
2023-05-01T11:47:44.487Z,21.78
2023-05-01T11:50:12.716Z,21.80
2023-05-01T11:52:44.818Z,21.83
2023-05-01T11:55:12.118Z,21.84
2023-05-01T11:57:50.289Z,21.86
2023-05-01T12:00:34.088Z,21.88
2023-05-01T12:03:15.863Z,21.90
2023-05-01T12:05:46.613Z,21.90
2023-05-01T12:08:19.330Z,21.92
2023-05-01T12:10:49.529Z,21.92
2023-05-01T12:13:17.096Z,21.93
2023-05-01T12:15:46.456Z,21.94
2023-05-01T12:18:15.700Z,21.96
2023-05-01T12:20:47.899Z,21.98
2023-05-01T12:23:16.463Z,21.98
2023-05-01T12:25:45.061Z,21.98
2023-05-01T12:28:18.163Z,21.99
2023-05-01T12:30:56.492Z,21.99
2023-05-01T12:33:24.423Z,22.00
2023-05-01T12:35:51.865Z,21.99
2023-05-01T12:38:20.973Z,21.98
2023-05-01T12:40:59.470Z,21.96
2023-05-01T12:43:34.196Z,21.97
2023-05-01T12:46:02.323Z,21.96
2023-05-01T12:48:31.287Z,21.97
2023-05-01T12:50:58.596Z,21.98
2023-05-01T12:53:27.159Z,21.98
2023-05-01T12:55:56.316Z,21.99
2023-05-01T12:58:26.355Z,22.00
2023-05-01T13:00:54.842Z,22.02
2023-05-01T13:03:25.367Z,22.02
2023-05-01T13:05:57.719Z,22.03
2023-05-01T13:08:33.603Z,22.04
2023-05-01T13:11:03.906Z,22.04
2023-05-01T13:13:33.448Z,22.04
2023-05-01T13:16:12.154Z,22.05
2023-05-01T13:18:51.115Z,22.04
2023-05-01T13:21:23.214Z,22.05
2023-05-01T13:23:58.798Z,22.05
2023-05-01T13:26:30.405Z,22.07
2023-05-01T13:29:00.215Z,22.07
2023-05-01T13:31:27.817Z,22.08
2023-05-01T13:33:56.195Z,22.08
2023-05-01T13:36:26.648Z,22.09
2023-05-01T13:38:56.815Z,22.12
2023-05-01T13:41:28.368Z,22.13
2023-05-01T13:43:57.310Z,22.13
2023-05-01T13:46:25.052Z,22.10
2023-05-01T13:48:52.797Z,22.14
2023-05-01T13:51:24.741Z,22.14
2023-05-01T13:53:53.707Z,22.14
2023-05-01T13:56:23.938Z,22.03
2023-05-01T13:58:51.430Z,22.01
2023-05-01T14:01:20.840Z,22.01
2023-05-01T14:03:49.076Z,22.03
2023-05-01T14:06:18.605Z,22.05
2023-05-01T14:08:47.707Z,22.06
2023-05-01T14:11:15.119Z,22.05
2023-05-01T14:13:47.094Z,22.05
2023-05-01T14:16:32.340Z,22.06
2023-05-01T14:19:01.985Z,22.08
2023-05-01T14:21:29.943Z,22.09
2023-05-01T14:23:58.138Z,22.08
2023-05-01T14:26:25.577Z,22.09
2023-05-01T14:28:53.118Z,22.09
2023-05-01T14:31:30.236Z,22.12
2023-05-01T14:33:59.617Z,22.12
2023-05-01T14:36:33.995Z,22.09
2023-05-01T14:39:02.418Z,22.13
2023-05-01T14:41:30.161Z,22.13
2023-05-01T14:43:57.717Z,22.12
2023-05-01T14:46:32.881Z,22.13
2023-05-01T14:49:03.386Z,22.13
2023-05-01T14:51:32.278Z,22.14
2023-05-01T14:54:00.171Z,22.14
2023-05-01T14:56:27.573Z,22.14
2023-05-01T14:58:54.824Z,22.15
2023-05-01T15:01:22.171Z,22.15
2023-05-01T15:03:49.706Z,22.13
2023-05-01T15:06:17.416Z,22.14
2023-05-01T15:08:45.571Z,22.14
2023-05-01T15:11:14.277Z,22.15
2023-05-01T15:13:42.759Z,22.16
2023-05-01T15:16:11.011Z,22.16
2023-05-01T15:18:38.693Z,22.18
2023-05-01T15:21:06.051Z,22.19
2023-05-01T15:23:33.361Z,22.19
2023-05-01T15:26:01.477Z,22.20
2023-05-01T15:28:29.004Z,22.22
2023-05-01T15:30:56.313Z,22.22
2023-05-01T15:33:23.681Z,22.22
2023-05-01T15:35:52.716Z,22.21
2023-05-01T15:38:22.945Z,22.21
2023-05-01T15:40:50.381Z,22.21
2023-05-01T15:43:17.718Z,22.18
2023-05-01T15:45:47.329Z,22.16
2023-05-01T15:48:14.731Z,22.18
2023-05-01T15:50:42.024Z,22.19
2023-05-01T15:53:09.294Z,22.20
2023-05-01T15:55:36.883Z,22.19
2023-05-01T15:58:04.067Z,22.18
2023-05-01T16:00:32.747Z,22.17
2023-05-01T16:03:02.438Z,22.15
2023-05-01T16:05:29.745Z,22.15
2023-05-01T16:08:00.960Z,22.15
2023-05-01T16:10:28.538Z,22.14
2023-05-01T16:12:56.129Z,22.12
2023-05-01T16:15:23.323Z,22.13
2023-05-01T16:17:51.904Z,22.13
2023-05-01T16:20:19.439Z,22.12
2023-05-01T16:22:47.165Z,22.12
2023-05-01T16:25:14.729Z,22.09
2023-05-01T16:27:44.259Z,22.09
2023-05-01T16:30:14.337Z,22.12
2023-05-01T16:32:42.044Z,22.09
2023-05-01T16:35:16.678Z,22.08
2023-05-01T16:37:46.815Z,22.08
2023-05-01T16:40:18.003Z,22.12
2023-05-01T16:42:54.959Z,22.13
2023-05-01T16:45:22.421Z,22.08
2023-05-01T16:47:49.747Z,22.10
2023-05-01T16:50:17.341Z,22.07
2023-05-01T16:52:44.559Z,22.04
2023-05-01T16:55:11.946Z,21.99
2023-05-01T16:57:39.168Z,21.95
2023-05-01T17:00:09.353Z,21.90
2023-05-01T17:02:38.223Z,21.90
2023-05-01T17:05:06.161Z,21.90
2023-05-01T17:07:33.718Z,21.92
2023-05-01T17:10:01.110Z,21.91
2023-05-01T17:12:29.273Z,21.93
2023-05-01T17:14:56.863Z,21.94
2023-05-01T17:17:25.009Z,21.96
2023-05-01T17:19:52.704Z,21.96
2023-05-01T17:22:20.027Z,21.97
2023-05-01T17:24:47.649Z,21.96
2023-05-01T17:27:15.530Z,21.97
2023-05-01T17:29:43.812Z,21.96
2023-05-01T17:32:11.281Z,21.97
2023-05-01T17:34:38.500Z,21.94
2023-05-01T17:37:06.921Z,21.95
2023-05-01T17:39:34.396Z,21.95
2023-05-01T17:42:02.548Z,21.95
2023-05-01T17:44:29.961Z,21.97
2023-05-01T17:46:57.181Z,22.00
2023-05-01T17:49:24.784Z,22.01
2023-05-01T17:51:51.993Z,22.01
2023-05-01T17:54:19.522Z,22.00
2023-05-01T17:56:46.721Z,22.00
2023-05-01T17:59:13.984Z,21.99
2023-05-01T18:01:41.705Z,22.00
2023-05-01T18:04:09.512Z,22.00
2023-05-01T18:06:37.075Z,21.99
2023-05-01T18:09:04.521Z,21.99
2023-05-01T18:11:31.684Z,21.99
2023-05-01T18:13:59.224Z,21.99
2023-05-01T18:16:26.519Z,21.99
2023-05-01T18:18:54.014Z,21.99
2023-05-01T18:21:21.247Z,21.98
2023-05-01T18:23:48.962Z,21.96
2023-05-01T18:26:16.667Z,21.96
2023-05-01T18:28:44.122Z,21.94
2023-05-01T18:31:11.631Z,21.93
2023-05-01T18:33:39.302Z,21.91
2023-05-01T18:36:06.541Z,21.91
2023-05-01T18:38:33.728Z,21.91
2023-05-01T18:41:01.203Z,21.91
2023-05-01T18:43:28.647Z,21.90
2023-05-01T18:45:55.941Z,21.89
2023-05-01T18:48:23.250Z,21.90
2023-05-01T18:51:04.668Z,21.89
2023-05-01T18:53:34.738Z,21.86
2023-05-01T18:56:02.073Z,21.87
2023-05-01T18:58:30.224Z,21.84
2023-05-01T19:00:59.972Z,21.83
2023-05-01T19:03:27.203Z,21.82
2023-05-01T19:05:54.359Z,21.82
2023-05-01T19:08:21.566Z,21.80
2023-05-01T19:10:48.742Z,21.80
2023-05-01T19:13:16.410Z,21.80
2023-05-01T19:15:46.765Z,21.81
2023-05-01T19:18:16.074Z,21.80
2023-05-01T19:20:43.551Z,21.80
2023-05-01T19:23:10.777Z,21.78
2023-05-01T19:25:38.241Z,21.76
2023-05-01T19:28:05.538Z,21.76
2023-05-01T19:30:32.789Z,21.76
2023-05-01T19:33:00.268Z,21.76
2023-05-01T19:35:27.543Z,21.78
2023-05-01T19:37:58.499Z,21.80
2023-05-01T19:40:26.090Z,21.81
2023-05-01T19:42:53.397Z,21.83
2023-05-01T19:45:21.046Z,21.85
2023-05-01T19:47:48.243Z,21.86
2023-05-01T19:50:18.956Z,21.88
2023-05-01T19:52:46.145Z,21.89
2023-05-01T19:55:14.765Z,21.91
2023-05-01T19:57:42.344Z,21.90
2023-05-01T20:00:12.219Z,21.92
2023-05-01T20:02:39.912Z,21.92
2023-05-01T20:05:07.341Z,21.93
2023-05-01T20:07:34.952Z,21.93
2023-05-01T20:10:02.404Z,21.94
2023-05-01T20:12:29.699Z,21.94
2023-05-01T20:14:58.789Z,21.94
2023-05-01T20:17:26.320Z,21.94
2023-05-01T20:19:53.747Z,21.93
2023-05-01T20:22:21.178Z,21.94
2023-05-01T20:24:48.328Z,21.95
2023-05-01T20:27:15.789Z,21.94
2023-05-01T20:29:43.025Z,21.95
2023-05-01T20:32:10.275Z,21.95
2023-05-01T20:34:37.495Z,21.96
2023-05-01T20:37:04.696Z,21.98
2023-05-01T20:39:31.894Z,21.98
2023-05-01T20:41:59.367Z,21.99
2023-05-01T20:44:26.933Z,21.98
2023-05-01T20:46:54.197Z,21.98
2023-05-01T20:49:21.532Z,21.98
2023-05-01T20:51:48.994Z,21.98
2023-05-01T20:54:16.219Z,21.99
2023-05-01T20:56:43.422Z,21.99
2023-05-01T20:59:10.689Z,21.99
2023-05-01T21:01:38.193Z,21.99
2023-05-01T21:04:06.532Z,22.01
2023-05-01T21:06:34.030Z,22.02
2023-05-01T21:09:03.195Z,22.01
2023-05-01T21:11:30.403Z,22.02
2023-05-01T21:13:58.352Z,22.03
2023-05-01T21:16:27.583Z,22.03
2023-05-01T21:18:54.943Z,22.01
2023-05-01T21:21:22.150Z,22.02
2023-05-01T21:23:49.455Z,22.02
2023-05-01T21:26:16.898Z,22.03
2023-05-01T21:28:44.111Z,22.02
2023-05-01T21:31:15.074Z,22.03
2023-05-01T21:33:45.620Z,22.04
2023-05-01T21:36:13.985Z,22.05
2023-05-01T21:38:41.249Z,22.04
2023-05-01T21:41:09.470Z,22.04
2023-05-01T21:43:36.662Z,22.03
2023-05-01T21:46:03.845Z,22.04
2023-05-01T21:48:33.599Z,22.04
2023-05-01T21:51:00.893Z,22.03
2023-05-01T21:53:29.875Z,22.04
2023-05-01T21:55:57.014Z,22.03
2023-05-01T21:58:25.136Z,22.03
2023-05-01T22:00:52.458Z,22.03
2023-05-01T22:03:20.119Z,22.03
2023-05-01T22:05:47.474Z,22.03
2023-05-01T22:08:14.663Z,22.02
2023-05-01T22:10:42.925Z,22.04
2023-05-01T22:13:11.426Z,22.03
2023-05-01T22:15:38.606Z,22.03
2023-05-01T22:18:05.864Z,22.03
2023-05-01T22:20:33.069Z,22.03
2023-05-01T22:23:00.946Z,22.04
2023-05-01T22:25:28.647Z,22.03
2023-05-01T22:27:55.809Z,22.03
2023-05-01T22:30:22.985Z,22.02
2023-05-01T22:32:50.254Z,22.02
2023-05-01T22:35:17.550Z,22.03
2023-05-01T22:37:44.706Z,22.03
2023-05-01T22:40:12.060Z,22.03
2023-05-01T22:42:39.227Z,22.03
2023-05-01T22:45:07.073Z,22.02
2023-05-01T22:47:34.390Z,22.03
2023-05-01T22:50:02.312Z,22.03
2023-05-01T22:52:29.810Z,22.03
2023-05-01T22:54:57.006Z,22.05
2023-05-01T22:57:24.191Z,22.03
2023-05-01T22:59:51.374Z,22.03
2023-05-01T23:02:18.915Z,22.04
2023-05-01T23:04:46.197Z,22.04
2023-05-01T23:07:16.531Z,22.03
2023-05-01T23:09:43.923Z,22.03
2023-05-01T23:12:22.766Z,22.02
2023-05-01T23:14:49.939Z,22.03
2023-05-01T23:17:17.381Z,22.02
2023-05-01T23:19:46.352Z,22.03
2023-05-01T23:22:13.806Z,22.02
2023-05-01T23:24:48.706Z,22.03
2023-05-01T23:27:18.527Z,22.02
2023-05-01T23:30:05.957Z,22.02
2023-05-01T23:32:34.156Z,22.03
2023-05-01T23:35:14.554Z,22.03
2023-05-01T23:37:41.932Z,22.02
2023-05-01T23:40:10.437Z,22.02
2023-05-01T23:42:38.729Z,22.02
2023-05-01T23:45:07.643Z,22.03
2023-05-01T23:47:34.947Z,22.02
2023-05-01T23:50:03.715Z,22.03
2023-05-01T23:52:30.980Z,22.03
2023-05-01T23:54:58.164Z,22.02
2023-05-01T23:57:25.316Z,22.03
2023-05-01T23:59:52.815Z,22.01
